createdAt,value
2023-01-22T00:21:05.745Z,20.29
2023-01-22T00:22:05.720Z,20.28
2023-01-22T00:43:05.732Z,20.28
2023-01-22T00:50:05.558Z,20.28
2023-01-22T00:51:05.549Z,20.28
2023-01-22T00:52:05.510Z,20.27
2023-01-22T00:53:05.537Z,20.28
2023-01-22T00:54:06.232Z,20.28
2023-01-22T00:55:05.547Z,20.28
2023-01-22T00:56:05.578Z,20.28
2023-01-22T00:57:05.584Z,20.27
2023-01-22T00:58:05.602Z,20.28
2023-01-22T00:59:05.613Z,20.28
2023-01-22T01:00:05.630Z,20.28
2023-01-22T01:01:05.748Z,20.27
2023-01-22T01:02:05.797Z,20.28
2023-01-22T01:03:05.742Z,20.27
2023-01-22T01:04:05.717Z,20.28
2023-01-22T01:05:05.729Z,20.28
2023-01-22T01:06:05.744Z,20.28
2023-01-22T01:07:05.740Z,20.27
2023-01-22T01:08:05.753Z,20.27
2023-01-22T01:09:05.781Z,20.28
2023-01-22T01:10:05.865Z,20.27
2023-01-22T01:11:05.797Z,20.27
2023-01-22T01:12:05.817Z,20.27
2023-01-22T01:13:05.819Z,20.28
2023-01-22T01:14:05.835Z,20.28
2023-01-22T01:15:05.915Z,20.27
2023-01-22T01:16:05.914Z,20.27
2023-01-22T01:17:05.878Z,20.27
2023-01-22T01:18:05.871Z,20.27
2023-01-22T01:19:05.879Z,20.27
2023-01-22T01:20:05.892Z,20.27
2023-01-22T01:21:05.895Z,20.27
2023-01-22T01:22:05.916Z,20.26
2023-01-22T01:23:05.934Z,20.26
2023-01-22T01:24:06.757Z,20.27
2023-01-22T01:25:05.971Z,20.27
2023-01-22T01:26:05.973Z,20.27
2023-01-22T01:27:05.999Z,20.27
2023-01-22T01:28:06.024Z,20.27
2023-01-22T01:29:06.024Z,20.27
2023-01-22T01:30:06.092Z,20.27
2023-01-22T01:31:06.422Z,20.27
2023-01-22T01:32:06.076Z,20.27
2023-01-22T01:33:06.105Z,20.27
2023-01-22T01:34:06.129Z,20.27
2023-01-22T01:35:06.137Z,20.26
2023-01-22T01:36:06.143Z,20.26
2023-01-22T01:37:06.166Z,20.27
2023-01-22T01:38:06.248Z,20.26
2023-01-22T01:39:06.291Z,20.27
2023-01-22T01:40:06.235Z,20.26
2023-01-22T01:41:06.244Z,20.27
2023-01-22T01:42:06.251Z,20.27
2023-01-22T01:43:06.269Z,20.26
2023-01-22T01:44:06.289Z,20.26
2023-01-22T01:45:06.308Z,20.27
2023-01-22T01:46:06.325Z,20.27
2023-01-22T01:47:06.415Z,20.26
2023-01-22T01:48:06.342Z,20.26
2023-01-22T01:49:06.361Z,20.27
2023-01-22T01:50:06.393Z,20.26
2023-01-22T01:51:06.427Z,20.26
2023-01-22T01:52:06.403Z,20.27
2023-01-22T01:53:06.417Z,20.27
2023-01-22T01:54:06.445Z,20.27
2023-01-22T01:55:06.462Z,20.27
2023-01-22T01:56:06.489Z,20.27
2023-01-22T01:57:06.504Z,20.26
2023-01-22T01:58:06.513Z,20.27
2023-01-22T01:59:06.528Z,20.27
2023-01-22T02:00:06.544Z,20.27
2023-01-22T02:01:06.586Z,20.26
2023-01-22T02:02:06.603Z,20.27
2023-01-22T02:03:06.689Z,20.27
2023-01-22T02:04:06.614Z,20.27
2023-01-22T02:05:06.663Z,20.27
2023-01-22T02:06:06.794Z,20.26
2023-01-22T02:07:06.680Z,20.27
2023-01-22T02:08:06.697Z,20.26
2023-01-22T02:09:06.709Z,20.26
2023-01-22T02:10:06.749Z,20.27
2023-01-22T02:11:06.756Z,20.27
2023-01-22T02:12:06.784Z,20.26
2023-01-22T02:13:06.791Z,20.27
2023-01-22T02:14:06.828Z,20.26
2023-01-22T02:15:06.862Z,20.26
2023-01-22T02:16:06.875Z,20.26
2023-01-22T02:17:06.869Z,20.26
2023-01-22T02:18:06.962Z,20.26
2023-01-22T02:19:06.995Z,20.26
2023-01-22T02:20:06.985Z,20.26
2023-01-22T02:21:06.943Z,20.26
2023-01-22T02:22:06.970Z,20.26
2023-01-22T02:23:06.982Z,20.26
2023-01-22T02:24:07.012Z,20.27
2023-01-22T02:25:07.077Z,20.27
2023-01-22T02:26:07.031Z,20.26
2023-01-22T02:27:07.061Z,20.26
2023-01-22T02:28:07.066Z,20.27
2023-01-22T02:29:07.086Z,20.26
2023-01-22T02:30:07.100Z,20.26
2023-01-22T02:31:07.312Z,20.26
2023-01-22T02:32:07.139Z,20.27
2023-01-22T02:33:07.231Z,20.26
2023-01-22T02:34:07.264Z,20.27
2023-01-22T02:35:07.267Z,20.26
2023-01-22T02:36:07.196Z,20.26
2023-01-22T02:37:07.222Z,20.26
2023-01-22T02:38:07.219Z,20.26
2023-01-22T02:39:07.253Z,20.26
2023-01-22T02:40:07.281Z,20.27
2023-01-22T02:41:07.283Z,20.26
2023-01-22T02:42:07.294Z,20.26
2023-01-22T02:43:07.304Z,20.26
2023-01-22T02:44:07.769Z,20.26
2023-01-22T02:45:07.337Z,20.26
2023-01-22T02:46:07.391Z,20.26
2023-01-22T02:47:07.360Z,20.26
2023-01-22T02:48:07.386Z,20.26
2023-01-22T02:49:07.400Z,20.26
2023-01-22T02:50:07.404Z,20.26
2023-01-22T02:51:07.587Z,20.26
2023-01-22T02:52:07.424Z,20.27
2023-01-22T02:53:07.506Z,20.27
2023-01-22T02:54:07.489Z,20.27
2023-01-22T02:55:07.479Z,20.26
2023-01-22T04:25:08.752Z,20.26
2023-01-22T04:26:08.832Z,20.26
2023-01-22T05:15:23.959Z,20.26
2023-01-22T09:49:17.431Z,20.52
2023-01-22T15:55:15.562Z,20.27
2023-01-22T16:02:15.667Z,20.26
2023-01-22T16:49:16.480Z,20.21
2023-01-22T20:01:16.112Z,20.16
2023-01-22T21:06:15.637Z,20.17
2023-01-22T21:39:15.506Z,20.17
2023-01-22T21:40:15.537Z,20.16
2023-01-22T21:41:15.556Z,20.16
2023-01-22T21:42:15.586Z,20.16
2023-01-22T21:43:15.614Z,20.16
2023-01-22T21:44:15.665Z,20.16
2023-01-22T21:45:15.661Z,20.16
2023-01-22T21:46:15.697Z,20.16
2023-01-22T21:47:15.793Z,20.16
2023-01-22T21:48:15.749Z,20.16
2023-01-22T21:49:15.789Z,20.15
2023-01-22T21:50:15.888Z,20.16
2023-01-22T21:51:15.931Z,20.16
2023-01-22T21:52:15.865Z,20.16
2023-01-22T21:53:15.879Z,20.16
2023-01-22T21:54:15.908Z,20.16
2023-01-22T21:55:15.934Z,20.16
2023-01-22T21:56:15.962Z,20.16
2023-01-22T21:57:16.072Z,20.16
2023-01-22T21:58:16.001Z,20.16
2023-01-22T21:59:16.082Z,20.15
2023-01-22T22:00:16.093Z,20.16
2023-01-22T22:01:16.099Z,20.16
2023-01-22T22:02:16.262Z,20.16
2023-01-22T22:03:16.147Z,20.16
2023-01-22T22:04:16.214Z,20.16
2023-01-22T22:05:16.177Z,20.15
2023-01-22T22:06:16.306Z,20.16
2023-01-22T22:07:16.236Z,20.15
2023-01-22T22:08:16.273Z,20.16
2023-01-22T22:09:16.291Z,20.16
2023-01-22T22:10:16.383Z,20.16
2023-01-22T22:11:16.356Z,20.16
2023-01-22T22:12:16.370Z,20.15
2023-01-22T22:13:16.474Z,20.15
2023-01-22T22:14:16.424Z,20.16
2023-01-22T22:15:16.463Z,20.16
2023-01-22T22:16:16.603Z,20.15
2023-01-22T22:17:16.517Z,20.15
2023-01-22T22:18:16.546Z,20.15
2023-01-22T22:19:16.561Z,20.15
2023-01-22T22:20:16.840Z,20.15
2023-01-22T22:21:16.745Z,20.15
2023-01-22T22:22:16.762Z,20.15
2023-01-22T22:23:16.754Z,20.15
2023-01-22T22:24:17.725Z,20.15
2023-01-22T22:25:16.758Z,20.15
2023-01-22T22:26:16.789Z,20.15
2023-01-22T22:27:16.874Z,20.15
2023-01-22T22:28:16.867Z,20.15
2023-01-22T22:29:16.884Z,20.16
2023-01-22T22:30:17.163Z,20.15
2023-01-22T22:31:17.008Z,20.15
